sensor_id;sensor_type;location;lat;lon;timestamp;P1;durP1;ratioP1;P2;durP2;ratioP2
75156;SDS011;63736;50.076;8.198;2022-11-20T00:00:27;22.60;;;9.47;;
75156;SDS011;63736;50.076;8.198;2022-11-20T00:02:52;21.03;;;8.80;;
75156;SDS011;63736;50.076;8.198;2022-11-20T00:05:17;19.97;;;7.67;;
75156;SDS011;63736;50.076;8.198;2022-11-20T00:07:43;24.50;;;9.43;;
75156;SDS011;63736;50.076;8.198;2022-11-20T00:10:08;19.30;;;8.37;;
75156;SDS011;63736;50.076;8.198;2022-11-20T00:12:34;23.67;;;8.70;;
75156;SDS011;63736;50.076;8.198;2022-11-20T00:14:59;23.30;;;9.10;;
75156;SDS011;63736;50.076;8.198;2022-11-20T00:17:24;18.58;;;7.22;;
75156;SDS011;63736;50.076;8.198;2022-11-20T00:19:50;24.13;;;10.53;;
75156;SDS011;63736;50.076;8.198;2022-11-20T00:22:15;21.17;;;9.03;;
75156;SDS011;63736;50.076;8.198;2022-11-20T00:24:40;19.87;;;8.90;;
75156;SDS011;63736;50.076;8.198;2022-11-20T00:27:06;25.00;;;10.90;;
75156;SDS011;63736;50.076;8.198;2022-11-20T00:29:31;23.20;;;9.97;;
75156;SDS011;63736;50.076;8.198;2022-11-20T00:31:56;21.30;;;9.00;;
75156;SDS011;63736;50.076;8.198;2022-11-20T00:34:21;19.40;;;7.60;;
75156;SDS011;63736;50.076;8.198;2022-11-20T00:36:46;20.50;;;8.27;;
75156;SDS011;63736;50.076;8.198;2022-11-20T00:39:12;22.47;;;9.10;;
75156;SDS011;63736;50.076;8.198;2022-11-20T00:41:37;21.30;;;8.87;;
75156;SDS011;63736;50.076;8.198;2022-11-20T00:44:02;23.17;;;9.73;;
75156;SDS011;63736;50.076;8.198;2022-11-20T00:46:28;25.23;;;10.30;;
75156;SDS011;63736;50.076;8.198;2022-11-20T00:48:53;27.97;;;10.60;;
75156;SDS011;63736;50.076;8.198;2022-11-20T00:51:20;18.08;;;7.28;;
75156;SDS011;63736;50.076;8.198;2022-11-20T00:53:47;23.47;;;9.53;;
75156;SDS011;63736;50.076;8.198;2022-11-20T00:56:13;19.50;;;8.45;;
75156;SDS011;63736;50.076;8.198;2022-11-20T00:58:41;29.47;;;9.60;;
75156;SDS011;63736;50.076;8.198;2022-11-20T01:01:09;24.40;;;10.25;;
75156;SDS011;63736;50.076;8.198;2022-11-20T01:03:37;21.58;;;9.18;;
75156;SDS011;63736;50.076;8.198;2022-11-20T01:06:05;21.98;;;7.85;;
75156;SDS011;63736;50.076;8.198;2022-11-20T01:08:33;22.65;;;9.50;;
75156;SDS011;63736;50.076;8.198;2022-11-20T01:11:10;20.63;;;8.43;;
75156;SDS011;63736;50.076;8.198;2022-11-20T01:13:42;18.25;;;7.97;;
75156;SDS011;63736;50.076;8.198;2022-11-20T01:18:35;16.95;;;7.63;;
75156;SDS011;63736;50.076;8.198;2022-11-20T01:21:02;18.05;;;8.18;;
75156;SDS011;63736;50.076;8.198;2022-11-20T01:23:36;22.25;;;9.77;;
75156;SDS011;63736;50.076;8.198;2022-11-20T01:26:03;21.63;;;8.77;;
75156;SDS011;63736;50.076;8.198;2022-11-20T01:28:30;21.57;;;9.77;;
75156;SDS011;63736;50.076;8.198;2022-11-20T01:30:55;23.05;;;9.43;;
75156;SDS011;63736;50.076;8.198;2022-11-20T01:33:20;21.03;;;9.23;;
75156;SDS011;63736;50.076;8.198;2022-11-20T01:35:46;20.03;;;8.17;;
75156;SDS011;63736;50.076;8.198;2022-11-20T01:38:11;22.53;;;9.70;;
75156;SDS011;63736;50.076;8.198;2022-11-20T01:40:36;19.70;;;8.80;;
75156;SDS011;63736;50.076;8.198;2022-11-20T01:43:20;21.13;;;9.13;;
75156;SDS011;63736;50.076;8.198;2022-11-20T01:48:27;16.23;;;7.78;;
75156;SDS011;63736;50.076;8.198;2022-11-20T01:51:01;22.38;;;8.07;;
75156;SDS011;63736;50.076;8.198;2022-11-20T01:53:30;16.77;;;7.60;;
75156;SDS011;63736;50.076;8.198;2022-11-20T01:55:58;21.17;;;8.53;;
75156;SDS011;63736;50.076;8.198;2022-11-20T01:58:27;19.42;;;8.50;;
75156;SDS011;63736;50.076;8.198;2022-11-20T02:00:57;23.08;;;9.73;;
75156;SDS011;63736;50.076;8.198;2022-11-20T02:03:23;23.25;;;10.20;;
75156;SDS011;63736;50.076;8.198;2022-11-20T02:05:51;23.40;;;9.70;;
75156;SDS011;63736;50.076;8.198;2022-11-20T02:08:17;23.23;;;9.68;;
75156;SDS011;63736;50.076;8.198;2022-11-20T02:10:44;23.25;;;9.75;;
75156;SDS011;63736;50.076;8.198;2022-11-20T02:13:09;22.83;;;9.00;;
75156;SDS011;63736;50.076;8.198;2022-11-20T02:15:53;20.58;;;8.50;;
75156;SDS011;63736;50.076;8.198;2022-11-20T02:18:19;24.02;;;9.93;;
75156;SDS011;63736;50.076;8.198;2022-11-20T02:20:47;18.60;;;8.07;;
75156;SDS011;63736;50.076;8.198;2022-11-20T02:26:00;19.83;;;7.95;;
75156;SDS011;63736;50.076;8.198;2022-11-20T02:28:29;17.33;;;7.72;;
75156;SDS011;63736;50.076;8.198;2022-11-20T02:30:55;19.33;;;8.83;;
75156;SDS011;63736;50.076;8.198;2022-11-20T02:33:20;32.93;;;11.53;;
75156;SDS011;63736;50.076;8.198;2022-11-20T02:35:45;21.77;;;9.27;;
75156;SDS011;63736;50.076;8.198;2022-11-20T02:38:11;23.08;;;9.20;;
75156;SDS011;63736;50.076;8.198;2022-11-20T02:40:38;22.85;;;9.32;;
75156;SDS011;63736;50.076;8.198;2022-11-20T02:43:04;21.00;;;9.63;;
75156;SDS011;63736;50.076;8.198;2022-11-20T02:45:29;21.63;;;8.75;;
75156;SDS011;63736;50.076;8.198;2022-11-20T02:47:55;19.43;;;7.00;;
75156;SDS011;63736;50.076;8.198;2022-11-20T02:50:20;23.43;;;7.50;;
75156;SDS011;63736;50.076;8.198;2022-11-20T02:52:46;20.87;;;8.73;;
75156;SDS011;63736;50.076;8.198;2022-11-20T02:55:11;22.63;;;9.80;;
75156;SDS011;63736;50.076;8.198;2022-11-20T02:57:36;23.20;;;9.13;;
75156;SDS011;63736;50.076;8.198;2022-11-20T03:00:03;22.27;;;9.20;;
75156;SDS011;63736;50.076;8.198;2022-11-20T03:02:29;20.92;;;8.00;;
75156;SDS011;63736;50.076;8.198;2022-11-20T03:04:55;21.47;;;8.43;;
75156;SDS011;63736;50.076;8.198;2022-11-20T03:07:20;28.07;;;10.50;;
75156;SDS011;63736;50.076;8.198;2022-11-20T03:09:46;21.30;;;9.10;;
75156;SDS011;63736;50.076;8.198;2022-11-20T03:12:11;21.20;;;8.17;;
75156;SDS011;63736;50.076;8.198;2022-11-20T03:14:36;23.33;;;9.17;;
75156;SDS011;63736;50.076;8.198;2022-11-20T03:17:01;18.60;;;7.47;;
75156;SDS011;63736;50.076;8.198;2022-11-20T03:19:27;25.40;;;9.80;;
75156;SDS011;63736;50.076;8.198;2022-11-20T03:21:52;23.17;;;9.97;;
75156;SDS011;63736;50.076;8.198;2022-11-20T03:24:18;27.97;;;10.40;;
75156;SDS011;63736;50.076;8.198;2022-11-20T03:26:43;27.17;;;10.83;;
75156;SDS011;63736;50.076;8.198;2022-11-20T03:29:08;23.10;;;10.57;;
75156;SDS011;63736;50.076;8.198;2022-11-20T03:31:37;19.93;;;8.50;;
75156;SDS011;63736;50.076;8.198;2022-11-20T03:34:07;21.08;;;9.55;;
75156;SDS011;63736;50.076;8.198;2022-11-20T03:36:34;25.37;;;10.67;;
75156;SDS011;63736;50.076;8.198;2022-11-20T03:39:00;21.65;;;9.35;;
75156;SDS011;63736;50.076;8.198;2022-11-20T03:41:26;26.57;;;10.50;;
75156;SDS011;63736;50.076;8.198;2022-11-20T03:43:54;29.33;;;11.05;;
75156;SDS011;63736;50.076;8.198;2022-11-20T03:46:20;24.85;;;10.13;;
75156;SDS011;63736;50.076;8.198;2022-11-20T03:48:46;25.53;;;10.13;;
75156;SDS011;63736;50.076;8.198;2022-11-20T03:51:16;27.35;;;10.80;;
75156;SDS011;63736;50.076;8.198;2022-11-20T03:53:44;23.02;;;9.43;;
75156;SDS011;63736;50.076;8.198;2022-11-20T03:56:12;24.30;;;10.05;;
75156;SDS011;63736;50.076;8.198;2022-11-20T03:58:38;23.77;;;9.05;;
75156;SDS011;63736;50.076;8.198;2022-11-20T04:01:06;29.27;;;10.63;;
75156;SDS011;63736;50.076;8.198;2022-11-20T04:03:31;21.05;;;8.05;;
75156;SDS011;63736;50.076;8.198;2022-11-20T04:06:01;28.13;;;10.27;;
75156;SDS011;63736;50.076;8.198;2022-11-20T04:08:28;27.55;;;10.90;;
75156;SDS011;63736;50.076;8.198;2022-11-20T04:10:53;24.83;;;8.00;;
75156;SDS011;63736;50.076;8.198;2022-11-20T04:13:19;24.53;;;9.40;;
75156;SDS011;63736;50.076;8.198;2022-11-20T04:15:44;18.30;;;7.97;;
75156;SDS011;63736;50.076;8.198;2022-11-20T04:18:09;21.70;;;8.97;;
75156;SDS011;63736;50.076;8.198;2022-11-20T04:20:35;20.80;;;8.20;;
75156;SDS011;63736;50.076;8.198;2022-11-20T04:23:00;26.50;;;10.60;;
75156;SDS011;63736;50.076;8.198;2022-11-20T04:25:25;25.93;;;9.63;;
75156;SDS011;63736;50.076;8.198;2022-11-20T04:27:50;27.80;;;10.30;;
75156;SDS011;63736;50.076;8.198;2022-11-20T04:30:16;20.73;;;8.17;;
75156;SDS011;63736;50.076;8.198;2022-11-20T04:32:41;24.20;;;10.03;;
75156;SDS011;63736;50.076;8.198;2022-11-20T04:35:06;23.57;;;9.93;;
75156;SDS011;63736;50.076;8.198;2022-11-20T04:37:32;24.23;;;9.20;;
75156;SDS011;63736;50.076;8.198;2022-11-20T04:39:57;23.80;;;9.20;;
75156;SDS011;63736;50.076;8.198;2022-11-20T04:42:22;32.43;;;12.73;;
75156;SDS011;63736;50.076;8.198;2022-11-20T04:44:54;26.27;;;9.53;;
75156;SDS011;63736;50.076;8.198;2022-11-20T04:47:20;28.63;;;11.05;;
75156;SDS011;63736;50.076;8.198;2022-11-20T04:49:45;28.13;;;10.33;;
75156;SDS011;63736;50.076;8.198;2022-11-20T04:52:10;28.60;;;10.40;;
75156;SDS011;63736;50.076;8.198;2022-11-20T04:54:36;31.13;;;11.83;;
75156;SDS011;63736;50.076;8.198;2022-11-20T04:57:01;27.87;;;9.73;;
75156;SDS011;63736;50.076;8.198;2022-11-20T04:59:27;31.80;;;12.53;;
75156;SDS011;63736;50.076;8.198;2022-11-20T05:01:52;27.10;;;9.13;;
75156;SDS011;63736;50.076;8.198;2022-11-20T05:04:17;33.17;;;11.60;;
75156;SDS011;63736;50.076;8.198;2022-11-20T05:06:42;27.37;;;11.23;;
75156;SDS011;63736;50.076;8.198;2022-11-20T05:09:08;24.10;;;8.70;;
75156;SDS011;63736;50.076;8.198;2022-11-20T05:11:33;27.43;;;9.77;;
75156;SDS011;63736;50.076;8.198;2022-11-20T05:13:59;23.93;;;9.07;;
75156;SDS011;63736;50.076;8.198;2022-11-20T05:16:25;30.38;;;10.07;;
75156;SDS011;63736;50.076;8.198;2022-11-20T05:18:51;25.50;;;9.50;;
75156;SDS011;63736;50.076;8.198;2022-11-20T05:21:17;24.53;;;9.50;;
75156;SDS011;63736;50.076;8.198;2022-11-20T05:23:43;22.50;;;8.38;;
75156;SDS011;63736;50.076;8.198;2022-11-20T05:26:17;25.27;;;10.40;;
75156;SDS011;63736;50.076;8.198;2022-11-20T05:28:43;30.53;;;11.00;;
75156;SDS011;63736;50.076;8.198;2022-11-20T05:31:21;30.33;;;11.95;;
75156;SDS011;63736;50.076;8.198;2022-11-20T05:33:47;34.08;;;12.35;;
75156;SDS011;63736;50.076;8.198;2022-11-20T05:36:13;28.57;;;9.77;;
75156;SDS011;63736;50.076;8.198;2022-11-20T05:38:39;29.00;;;10.75;;
75156;SDS011;63736;50.076;8.198;2022-11-20T05:41:16;29.77;;;10.47;;
75156;SDS011;63736;50.076;8.198;2022-11-20T05:43:43;30.10;;;9.82;;
75156;SDS011;63736;50.076;8.198;2022-11-20T05:46:11;30.70;;;11.30;;
75156;SDS011;63736;50.076;8.198;2022-11-20T05:48:38;24.92;;;9.75;;
75156;SDS011;63736;50.076;8.198;2022-11-20T05:51:06;29.45;;;10.52;;
75156;SDS011;63736;50.076;8.198;2022-11-20T05:53:33;33.83;;;11.87;;
75156;SDS011;63736;50.076;8.198;2022-11-20T05:56:00;29.20;;;11.60;;
75156;SDS011;63736;50.076;8.198;2022-11-20T05:58:28;23.38;;;9.00;;
75156;SDS011;63736;50.076;8.198;2022-11-20T06:00:53;25.87;;;9.63;;
75156;SDS011;63736;50.076;8.198;2022-11-20T06:03:19;28.48;;;10.93;;
75156;SDS011;63736;50.076;8.198;2022-11-20T06:05:44;25.63;;;9.53;;
75156;SDS011;63736;50.076;8.198;2022-11-20T06:08:09;23.73;;;9.40;;
75156;SDS011;63736;50.076;8.198;2022-11-20T06:10:34;25.20;;;9.67;;
75156;SDS011;63736;50.076;8.198;2022-11-20T06:13:00;26.63;;;10.80;;
75156;SDS011;63736;50.076;8.198;2022-11-20T06:15:25;20.83;;;8.77;;
75156;SDS011;63736;50.076;8.198;2022-11-20T06:17:54;26.03;;;9.03;;
75156;SDS011;63736;50.076;8.198;2022-11-20T06:20:20;20.65;;;7.57;;
75156;SDS011;63736;50.076;8.198;2022-11-20T06:22:46;26.35;;;9.38;;
75156;SDS011;63736;50.076;8.198;2022-11-20T06:25:11;19.33;;;6.90;;
75156;SDS011;63736;50.076;8.198;2022-11-20T06:27:37;21.50;;;6.97;;
75156;SDS011;63736;50.076;8.198;2022-11-20T06:30:02;22.27;;;8.07;;
75156;SDS011;63736;50.076;8.198;2022-11-20T06:32:28;19.08;;;7.22;;
75156;SDS011;63736;50.076;8.198;2022-11-20T06:34:54;12.97;;;5.03;;
75156;SDS011;63736;50.076;8.198;2022-11-20T06:37:19;23.73;;;8.70;;
75156;SDS011;63736;50.076;8.198;2022-11-20T06:39:44;14.15;;;5.63;;
75156;SDS011;63736;50.076;8.198;2022-11-20T06:42:09;19.07;;;7.87;;
75156;SDS011;63736;50.076;8.198;2022-11-20T06:44:35;20.97;;;8.20;;
75156;SDS011;63736;50.076;8.198;2022-11-20T06:47:00;18.30;;;7.47;;
75156;SDS011;63736;50.076;8.198;2022-11-20T06:49:25;25.03;;;8.93;;
75156;SDS011;63736;50.076;8.198;2022-11-20T06:51:51;22.27;;;9.00;;
75156;SDS011;63736;50.076;8.198;2022-11-20T06:54:16;20.67;;;7.70;;
75156;SDS011;63736;50.076;8.198;2022-11-20T06:56:41;25.07;;;8.87;;
75156;SDS011;63736;50.076;8.198;2022-11-20T06:59:07;20.47;;;7.97;;
75156;SDS011;63736;50.076;8.198;2022-11-20T07:01:32;20.07;;;7.50;;
75156;SDS011;63736;50.076;8.198;2022-11-20T07:03:58;22.60;;;8.87;;
75156;SDS011;63736;50.076;8.198;2022-11-20T07:06:23;24.70;;;10.10;;
75156;SDS011;63736;50.076;8.198;2022-11-20T07:08:50;18.13;;;6.77;;
75156;SDS011;63736;50.076;8.198;2022-11-20T07:11:16;20.10;;;7.82;;
75156;SDS011;63736;50.076;8.198;2022-11-20T07:13:42;19.20;;;7.80;;
75156;SDS011;63736;50.076;8.198;2022-11-20T07:16:07;20.00;;;7.33;;
75156;SDS011;63736;50.076;8.198;2022-11-20T07:18:33;20.23;;;8.23;;
75156;SDS011;63736;50.076;8.198;2022-11-20T07:21:02;18.08;;;7.07;;
75156;SDS011;63736;50.076;8.198;2022-11-20T07:23:30;24.60;;;9.97;;
75156;SDS011;63736;50.076;8.198;2022-11-20T07:25:55;15.80;;;6.60;;
75156;SDS011;63736;50.076;8.198;2022-11-20T07:28:20;42.60;;;25.43;;
75156;SDS011;63736;50.076;8.198;2022-11-20T07:30:49;31.33;;;17.23;;
75156;SDS011;63736;50.076;8.198;2022-11-20T07:33:16;28.30;;;15.45;;
75156;SDS011;63736;50.076;8.198;2022-11-20T07:35:41;25.33;;;12.53;;
75156;SDS011;63736;50.076;8.198;2022-11-20T07:38:06;28.60;;;17.83;;
75156;SDS011;63736;50.076;8.198;2022-11-20T07:40:32;41.17;;;29.05;;
75156;SDS011;63736;50.076;8.198;2022-11-20T07:42:58;45.50;;;29.80;;
75156;SDS011;63736;50.076;8.198;2022-11-20T07:45:23;40.57;;;28.00;;
75156;SDS011;63736;50.076;8.198;2022-11-20T07:47:49;52.10;;;35.03;;
75156;SDS011;63736;50.076;8.198;2022-11-20T07:50:15;66.05;;;38.78;;
75156;SDS011;63736;50.076;8.198;2022-11-20T07:52:41;109.03;;;51.25;;
75156;SDS011;63736;50.076;8.198;2022-11-20T07:55:07;176.43;;;65.63;;
75156;SDS011;63736;50.076;8.198;2022-11-20T07:57:33;177.82;;;65.90;;
75156;SDS011;63736;50.076;8.198;2022-11-20T07:59:58;185.13;;;67.73;;
75156;SDS011;63736;50.076;8.198;2022-11-20T08:02:24;190.27;;;69.90;;
75156;SDS011;63736;50.076;8.198;2022-11-20T08:04:49;213.13;;;76.50;;
75156;SDS011;63736;50.076;8.198;2022-11-20T08:07:15;205.60;;;74.57;;
75156;SDS011;63736;50.076;8.198;2022-11-20T08:09:40;188.40;;;69.10;;
75156;SDS011;63736;50.076;8.198;2022-11-20T08:12:05;191.13;;;70.27;;
75156;SDS011;63736;50.076;8.198;2022-11-20T08:14:49;255.43;;;86.88;;
75156;SDS011;63736;50.076;8.198;2022-11-20T08:17:14;319.40;;;104.40;;
75156;SDS011;63736;50.076;8.198;2022-11-20T08:19:40;280.93;;;98.07;;
75156;SDS011;63736;50.076;8.198;2022-11-20T08:22:05;224.00;;;83.07;;
75156;SDS011;63736;50.076;8.198;2022-11-20T08:24:30;195.03;;;78.60;;
75156;SDS011;63736;50.076;8.198;2022-11-20T08:26:58;162.03;;;68.53;;
75156;SDS011;63736;50.076;8.198;2022-11-20T08:29:24;142.70;;;62.08;;
75156;SDS011;63736;50.076;8.198;2022-11-20T08:31:50;126.63;;;56.38;;
75156;SDS011;63736;50.076;8.198;2022-11-20T08:34:16;142.57;;;59.07;;
75156;SDS011;63736;50.076;8.198;2022-11-20T08:36:41;111.37;;;52.10;;
75156;SDS011;63736;50.076;8.198;2022-11-20T08:39:06;136.63;;;57.17;;
75156;SDS011;63736;50.076;8.198;2022-11-20T08:41:32;145.47;;;60.07;;
75156;SDS011;63736;50.076;8.198;2022-11-20T08:44:02;230.38;;;79.57;;
75156;SDS011;63736;50.076;8.198;2022-11-20T08:46:33;144.65;;;58.08;;
75156;SDS011;63736;50.076;8.198;2022-11-20T08:49:03;131.20;;;56.15;;
75156;SDS011;63736;50.076;8.198;2022-11-20T08:51:29;123.73;;;54.23;;
75156;SDS011;63736;50.076;8.198;2022-11-20T08:53:55;126.43;;;54.92;;
75156;SDS011;63736;50.076;8.198;2022-11-20T08:56:20;111.83;;;51.40;;
75156;SDS011;63736;50.076;8.198;2022-11-20T08:58:45;108.17;;;51.63;;
75156;SDS011;63736;50.076;8.198;2022-11-20T09:01:11;103.13;;;51.67;;
75156;SDS011;63736;50.076;8.198;2022-11-20T09:03:36;100.77;;;50.27;;
75156;SDS011;63736;50.076;8.198;2022-11-20T09:06:05;113.47;;;52.63;;
75156;SDS011;63736;50.076;8.198;2022-11-20T09:08:32;142.88;;;58.97;;
75156;SDS011;63736;50.076;8.198;2022-11-20T09:10:57;185.70;;;67.57;;
75156;SDS011;63736;50.076;8.198;2022-11-20T09:13:23;112.80;;;53.07;;
75156;SDS011;63736;50.076;8.198;2022-11-20T09:15:54;124.35;;;55.55;;
75156;SDS011;63736;50.076;8.198;2022-11-20T09:18:24;121.00;;;56.33;;
75156;SDS011;63736;50.076;8.198;2022-11-20T09:20:50;62.63;;;40.10;;
75156;SDS011;63736;50.076;8.198;2022-11-20T09:23:16;63.00;;;36.67;;
75156;SDS011;63736;50.076;8.198;2022-11-20T09:25:42;61.83;;;30.30;;
75156;SDS011;63736;50.076;8.198;2022-11-20T09:28:08;33.10;;;16.13;;
75156;SDS011;63736;50.076;8.198;2022-11-20T09:30:33;24.57;;;11.07;;
75156;SDS011;63736;50.076;8.198;2022-11-20T09:32:58;23.80;;;11.30;;
75156;SDS011;63736;50.076;8.198;2022-11-20T09:35:24;23.20;;;10.57;;
75156;SDS011;63736;50.076;8.198;2022-11-20T09:37:49;22.33;;;9.20;;
75156;SDS011;63736;50.076;8.198;2022-11-20T09:40:25;22.95;;;11.20;;
75156;SDS011;63736;50.076;8.198;2022-11-20T09:45:35;23.63;;;9.90;;
75156;SDS011;63736;50.076;8.198;2022-11-20T09:48:25;26.85;;;10.30;;
75156;SDS011;63736;50.076;8.198;2022-11-20T09:51:04;25.98;;;10.63;;
75156;SDS011;63736;50.076;8.198;2022-11-20T09:56:30;24.45;;;9.65;;
75156;SDS011;63736;50.076;8.198;2022-11-20T09:58:57;22.20;;;8.40;;
75156;SDS011;63736;50.076;8.198;2022-11-20T10:01:31;22.30;;;9.88;;
75156;SDS011;63736;50.076;8.198;2022-11-20T10:06:34;57.50;;;37.47;;
75156;SDS011;63736;50.076;8.198;2022-11-20T10:09:14;111.90;;;53.35;;
75156;SDS011;63736;50.076;8.198;2022-11-20T10:25:17;32.20;;;18.77;;
75156;SDS011;63736;50.076;8.198;2022-11-20T10:30:24;31.40;;;18.58;;
75156;SDS011;63736;50.076;8.198;2022-11-20T10:32:58;31.93;;;20.30;;
75156;SDS011;63736;50.076;8.198;2022-11-20T10:38:21;57.72;;;38.03;;
75156;SDS011;63736;50.076;8.198;2022-11-20T10:40:57;48.65;;;32.42;;
75156;SDS011;63736;50.076;8.198;2022-11-20T10:43:44;42.38;;;26.98;;
75156;SDS011;63736;50.076;8.198;2022-11-20T10:46:21;47.73;;;28.03;;
75156;SDS011;63736;50.076;8.198;2022-11-20T10:48:48;39.20;;;21.50;;
75156;SDS011;63736;50.076;8.198;2022-11-20T10:51:21;39.28;;;20.00;;
75156;SDS011;63736;50.076;8.198;2022-11-20T10:57:05;36.92;;;17.95;;
75156;SDS011;63736;50.076;8.198;2022-11-20T11:02:20;19.27;;;7.97;;
75156;SDS011;63736;50.076;8.198;2022-11-20T11:04:50;63.00;;;39.15;;
75156;SDS011;63736;50.076;8.198;2022-11-20T11:07:20;58.85;;;36.75;;
75156;SDS011;63736;50.076;8.198;2022-11-20T11:09:52;55.85;;;34.80;;
75156;SDS011;63736;50.076;8.198;2022-11-20T11:12:19;59.30;;;37.90;;
75156;SDS011;63736;50.076;8.198;2022-11-20T11:14:50;60.20;;;37.03;;
75156;SDS011;63736;50.076;8.198;2022-11-20T11:19:57;133.95;;;60.72;;
75156;SDS011;63736;50.076;8.198;2022-11-20T11:22:27;94.97;;;50.33;;
75156;SDS011;63736;50.076;8.198;2022-11-20T11:24:55;185.83;;;68.90;;
75156;SDS011;63736;50.076;8.198;2022-11-20T11:27:20;159.02;;;68.13;;
75156;SDS011;63736;50.076;8.198;2022-11-20T11:29:46;149.83;;;64.23;;
75156;SDS011;63736;50.076;8.198;2022-11-20T11:32:12;120.85;;;58.35;;
75156;SDS011;63736;50.076;8.198;2022-11-20T11:34:58;167.93;;;66.30;;
75156;SDS011;63736;50.076;8.198;2022-11-20T11:37:28;143.35;;;60.22;;
75156;SDS011;63736;50.076;8.198;2022-11-20T11:40:06;143.32;;;63.83;;
75156;SDS011;63736;50.076;8.198;2022-11-20T11:42:35;144.43;;;64.68;;
75156;SDS011;63736;50.076;8.198;2022-11-20T11:45:11;134.05;;;59.85;;
75156;SDS011;63736;50.076;8.198;2022-11-20T11:50:14;134.97;;;59.77;;
75156;SDS011;63736;50.076;8.198;2022-11-20T12:06:47;42.17;;;24.77;;
75156;SDS011;63736;50.076;8.198;2022-11-20T12:09:16;36.20;;;20.80;;
75156;SDS011;63736;50.076;8.198;2022-11-20T12:11:46;31.55;;;15.80;;
75156;SDS011;63736;50.076;8.198;2022-11-20T12:14:21;32.58;;;18.13;;
75156;SDS011;63736;50.076;8.198;2022-11-20T12:16:58;41.87;;;22.17;;
75156;SDS011;63736;50.076;8.198;2022-11-20T12:19:25;34.72;;;18.38;;
75156;SDS011;63736;50.076;8.198;2022-11-20T12:30:19;27.87;;;12.73;;
75156;SDS011;63736;50.076;8.198;2022-11-20T12:35:38;28.02;;;12.27;;
75156;SDS011;63736;50.076;8.198;2022-11-20T12:38:27;25.45;;;11.15;;
75156;SDS011;63736;50.076;8.198;2022-11-20T12:49:56;24.85;;;11.68;;
75156;SDS011;63736;50.076;8.198;2022-11-20T12:52:37;22.77;;;9.68;;
75156;SDS011;63736;50.076;8.198;2022-11-20T12:57:41;27.40;;;11.43;;
75156;SDS011;63736;50.076;8.198;2022-11-20T13:00:26;20.92;;;9.13;;
75156;SDS011;63736;50.076;8.198;2022-11-20T13:08:22;23.90;;;10.70;;
75156;SDS011;63736;50.076;8.198;2022-11-20T13:14:06;20.63;;;8.63;;
75156;SDS011;63736;50.076;8.198;2022-11-20T13:19:26;21.33;;;9.35;;
75156;SDS011;63736;50.076;8.198;2022-11-20T13:21:53;17.42;;;7.40;;
75156;SDS011;63736;50.076;8.198;2022-11-20T13:26:44;20.97;;;9.07;;
75156;SDS011;63736;50.076;8.198;2022-11-20T13:29:19;22.98;;;10.07;;
75156;SDS011;63736;50.076;8.198;2022-11-20T13:31:46;21.52;;;9.30;;
75156;SDS011;63736;50.076;8.198;2022-11-20T13:34:13;23.08;;;9.25;;
75156;SDS011;63736;50.076;8.198;2022-11-20T13:36:52;24.23;;;9.90;;
75156;SDS011;63736;50.076;8.198;2022-11-20T13:39:33;26.35;;;13.82;;
75156;SDS011;63736;50.076;8.198;2022-11-20T13:44:31;27.13;;;11.57;;
75156;SDS011;63736;50.076;8.198;2022-11-20T13:47:02;25.90;;;10.48;;
75156;SDS011;63736;50.076;8.198;2022-11-20T13:49:29;24.27;;;10.50;;
75156;SDS011;63736;50.076;8.198;2022-11-20T13:54:55;24.42;;;9.63;;
75156;SDS011;63736;50.076;8.198;2022-11-20T14:00:16;24.10;;;9.83;;
75156;SDS011;63736;50.076;8.198;2022-11-20T14:02:44;23.25;;;9.70;;
75156;SDS011;63736;50.076;8.198;2022-11-20T14:05:38;22.15;;;9.85;;
75156;SDS011;63736;50.076;8.198;2022-11-20T14:08:06;30.50;;;13.38;;
75156;SDS011;63736;50.076;8.198;2022-11-20T14:10:38;26.27;;;11.63;;
75156;SDS011;63736;50.076;8.198;2022-11-20T14:13:20;21.93;;;9.53;;
75156;SDS011;63736;50.076;8.198;2022-11-20T14:15:45;26.25;;;10.77;;
75156;SDS011;63736;50.076;8.198;2022-11-20T14:18:12;26.90;;;11.90;;
75156;SDS011;63736;50.076;8.198;2022-11-20T14:20:39;21.90;;;9.60;;
75156;SDS011;63736;50.076;8.198;2022-11-20T14:23:07;29.52;;;13.98;;
75156;SDS011;63736;50.076;8.198;2022-11-20T14:25:35;59.47;;;37.90;;
75156;SDS011;63736;50.076;8.198;2022-11-20T14:28:02;48.65;;;33.80;;
75156;SDS011;63736;50.076;8.198;2022-11-20T14:30:35;46.27;;;32.23;;
75156;SDS011;63736;50.076;8.198;2022-11-20T14:33:09;38.67;;;27.30;;
75156;SDS011;63736;50.076;8.198;2022-11-20T14:35:39;42.20;;;26.70;;
75156;SDS011;63736;50.076;8.198;2022-11-20T14:38:10;39.63;;;26.95;;
75156;SDS011;63736;50.076;8.198;2022-11-20T14:40:38;33.25;;;20.92;;
75156;SDS011;63736;50.076;8.198;2022-11-20T14:43:16;30.60;;;19.07;;
75156;SDS011;63736;50.076;8.198;2022-11-20T14:45:59;31.27;;;18.48;;
75156;SDS011;63736;50.076;8.198;2022-11-20T14:48:32;32.05;;;20.38;;
75156;SDS011;63736;50.076;8.198;2022-11-20T14:51:03;38.00;;;21.45;;
75156;SDS011;63736;50.076;8.198;2022-11-20T14:53:28;31.13;;;19.10;;
75156;SDS011;63736;50.076;8.198;2022-11-20T14:55:54;40.07;;;24.17;;
75156;SDS011;63736;50.076;8.198;2022-11-20T14:58:25;32.35;;;18.05;;
75156;SDS011;63736;50.076;8.198;2022-11-20T15:00:56;53.70;;;36.53;;
75156;SDS011;63736;50.076;8.198;2022-11-20T15:03:22;65.07;;;40.70;;
75156;SDS011;63736;50.076;8.198;2022-11-20T15:05:48;49.37;;;30.83;;
75156;SDS011;63736;50.076;8.198;2022-11-20T15:08:15;34.75;;;23.42;;
75156;SDS011;63736;50.076;8.198;2022-11-20T15:10:51;33.30;;;22.85;;
75156;SDS011;63736;50.076;8.198;2022-11-20T15:15:50;43.58;;;28.95;;
75156;SDS011;63736;50.076;8.198;2022-11-20T15:18:21;33.17;;;18.85;;
75156;SDS011;63736;50.076;8.198;2022-11-20T15:20:55;32.08;;;13.95;;
75156;SDS011;63736;50.076;8.198;2022-11-20T15:23:22;25.00;;;10.40;;
75156;SDS011;63736;50.076;8.198;2022-11-20T15:25:52;18.97;;;7.27;;
75156;SDS011;63736;50.076;8.198;2022-11-20T15:30:43;17.87;;;8.00;;
75156;SDS011;63736;50.076;8.198;2022-11-20T15:33:10;26.17;;;11.83;;
75156;SDS011;63736;50.076;8.198;2022-11-20T15:35:35;27.30;;;12.50;;
75156;SDS011;63736;50.076;8.198;2022-11-20T15:38:01;27.23;;;11.67;;
75156;SDS011;63736;50.076;8.198;2022-11-20T15:40:26;63.83;;;38.07;;
75156;SDS011;63736;50.076;8.198;2022-11-20T15:42:51;31.97;;;18.43;;
75156;SDS011;63736;50.076;8.198;2022-11-20T15:45:30;26.88;;;15.15;;
75156;SDS011;63736;50.076;8.198;2022-11-20T15:47:59;17.80;;;10.30;;
75156;SDS011;63736;50.076;8.198;2022-11-20T15:50:27;23.88;;;10.63;;
75156;SDS011;63736;50.076;8.198;2022-11-20T15:52:59;21.97;;;10.17;;
75156;SDS011;63736;50.076;8.198;2022-11-20T15:55:24;23.27;;;10.83;;
75156;SDS011;63736;50.076;8.198;2022-11-20T15:57:49;21.97;;;10.40;;
75156;SDS011;63736;50.076;8.198;2022-11-20T16:00:15;23.93;;;11.20;;
75156;SDS011;63736;50.076;8.198;2022-11-20T16:02:40;22.73;;;9.57;;
75156;SDS011;63736;50.076;8.198;2022-11-20T16:05:09;24.53;;;10.10;;
75156;SDS011;63736;50.076;8.198;2022-11-20T16:07:36;19.67;;;8.70;;
75156;SDS011;63736;50.076;8.198;2022-11-20T16:10:02;20.83;;;9.43;;
75156;SDS011;63736;50.076;8.198;2022-11-20T16:12:28;21.77;;;9.10;;
75156;SDS011;63736;50.076;8.198;2022-11-20T16:15:14;24.30;;;10.05;;
75156;SDS011;63736;50.076;8.198;2022-11-20T16:17:59;21.08;;;8.43;;
75156;SDS011;63736;50.076;8.198;2022-11-20T16:20:24;21.60;;;9.20;;